Time;durP1;ratioP1;P1;durP2;ratioP2;P2;SDS_P1;SDS_P2;PMS_P1;PMS_P2;Temp;Humidity;BMP_temperature;BMP_pressure;BME280_temperature;BME280_humidity;BME280_pressure;Samples;Min_cycle;Max_cycle;Signal;HPM_P1;HPM_P2
2023/04/21 00:01:36;;;;;;;40.80;29.83;;;;;;;6.87;100.00;100690.19;6190916;23;20025;-80
2023/04/21 00:04:03;;;;;;;43.50;31.45;;;;;;;7.02;100.00;100714.06;6191141;23;20453;-80
2023/04/21 00:06:31;;;;;;;40.10;31.00;;;;;;;7.02;100.00;100699.28;6191640;23;20044;-79
2023/04/21 00:09:00;;;;;;;43.42;31.98;;;;;;;6.92;100.00;100678.44;6191349;23;20017;-79
2023/04/21 00:11:27;;;;;;;45.90;32.55;;;;;;;6.93;100.00;100693.09;6188585;23;20020;-79
2023/04/21 00:14:00;;;;;;;47.20;33.42;;;;;;;6.92;100.00;100685.41;6190078;23;20016;-78
2023/04/21 00:16:27;;;;;;;47.88;32.75;;;;;;;6.89;100.00;100675.25;6190200;23;20064;-79
2023/04/21 00:18:54;;;;;;;45.70;32.88;;;;;;;6.93;100.00;100677.47;6189870;23;20466;-80
2023/04/21 00:21:24;;;;;;;49.15;32.83;;;;;;;6.94;100.00;100692.13;6190195;23;20044;-80
2023/04/21 00:23:59;;;;;;;47.72;32.80;;;;;;;6.84;100.00;100657.44;6190403;23;20401;-79
2023/04/21 00:26:30;;;;;;;49.03;35.00;;;;;;;6.81;100.00;100657.72;6190918;23;20017;-78
2023/04/21 00:29:00;;;;;;;51.00;34.35;;;;;;;6.93;100.00;100682.69;6190704;23;20481;-79
2023/04/21 00:31:35;;;;;;;51.10;35.28;;;;;;;6.96;100.00;100682.41;6191157;23;20028;-79
2023/04/21 00:34:02;;;;;;;46.75;33.85;;;;;;;6.90;100.00;100656.91;6190696;23;20025;-79
2023/04/21 00:36:32;;;;;;;49.53;34.85;;;;;;;6.92;100.00;100660.22;6191205;23;20023;-78
2023/04/21 00:42:03;;;;;;;53.13;35.00;;;;;;;6.89;100.00;100670.06;6191233;23;20104;-81
2023/04/21 00:44:30;;;;;;;54.15;37.38;;;;;;;6.99;100.00;100679.56;6191464;23;20045;-81
2023/04/21 00:46:56;;;;;;;54.67;36.58;;;;;;;7.02;100.00;100670.66;6191328;23;20021;-79
2023/04/21 00:49:26;;;;;;;50.50;35.50;;;;;;;6.98;100.00;100667.50;6190640;23;20025;-79
2023/04/21 00:51:53;;;;;;;57.60;36.97;;;;;;;6.97;100.00;100658.03;6191102;23;20081;-79
2023/04/21 00:54:21;;;;;;;61.80;37.78;;;;;;;6.96;100.00;100665.97;6190868;23;20049;-79
2023/04/21 00:56:47;;;;;;;55.55;38.80;;;;;;;6.91;100.00;100662.94;6191925;23;20529;-78
2023/04/21 00:59:15;;;;;;;54.65;37.60;;;;;;;6.90;100.00;100667.31;6192376;23;20025;-80
2023/04/21 01:01:43;;;;;;;56.33;38.97;;;;;;;6.91;100.00;100670.75;6191497;23;20060;-80
2023/04/21 01:04:10;;;;;;;57.25;39.35;;;;;;;6.99;100.00;100663.94;6191925;23;20461;-78
2023/04/21 01:06:38;;;;;;;56.22;39.35;;;;;;;7.01;100.00;100673.41;6192589;23;20037;-78
2023/04/21 01:09:05;;;;;;;57.13;38.22;;;;;;;6.94;100.00;100666.13;6194527;23;20059;-80
2023/04/21 01:11:32;;;;;;;59.58;39.65;;;;;;;6.97;100.00;100673.66;6193830;23;20067;-80
2023/04/21 01:13:58;;;;;;;57.40;38.83;;;;;;;6.99;100.00;100663.94;6193967;23;20025;-80
2023/04/21 01:16:26;;;;;;;61.65;40.40;;;;;;;7.04;100.00;100667.94;6193250;23;20052;-78
2023/04/21 01:18:53;;;;;;;58.33;39.97;;;;;;;6.98;100.00;100659.69;6193650;23;20056;-78
2023/04/21 01:21:23;;;;;;;60.25;40.20;;;;;;;7.02;100.00;100669.84;6193598;23;20462;-81
2023/04/21 01:23:51;;;;;;;56.60;38.95;;;;;;;7.04;100.00;100655.75;6197871;23;20025;-80
2023/04/21 01:26:19;;;;;;;54.83;37.90;;;;;;;7.03;100.00;100651.50;6197273;23;20017;-80
2023/04/21 01:28:46;;;;;;;58.67;40.00;;;;;;;7.03;100.00;100640.25;6195381;23;20180;-82
2023/04/21 01:31:13;;;;;;;58.88;39.50;;;;;;;7.09;100.00;100644.94;6193312;23;20025;-81
2023/04/21 01:33:40;;;;;;;56.72;39.40;;;;;;;7.11;100.00;100645.59;6193712;23;20020;-80
2023/04/21 01:36:15;;;;;;;53.33;37.78;;;;;;;7.14;100.00;100647.94;6195551;23;20390;-81
2023/04/21 01:38:42;;;;;;;56.08;38.45;;;;;;;7.11;100.00;100643.00;6195246;23;20036;-80
2023/04/21 01:41:11;;;;;;;54.17;37.70;;;;;;;7.12;100.00;100645.47;6194674;23;20536;-80
2023/04/21 01:43:41;;;;;;;54.83;38.00;;;;;;;7.00;100.00;100630.94;6193641;23;20470;-78
2023/04/21 01:46:10;;;;;;;53.60;37.63;;;;;;;7.05;100.00;100627.94;6193665;23;20017;-78
2023/04/21 01:48:46;;;;;;;54.88;36.60;;;;;;;7.15;100.00;100650.41;6194065;23;20422;-79
2023/04/21 01:51:16;;;;;;;52.83;36.55;;;;;;;7.04;100.00;100626.31;6193808;23;20354;-80
2023/04/21 01:53:53;;;;;;;50.88;36.08;;;;;;;7.17;100.00;100648.50;6193533;23;20071;-79
2023/04/21 01:56:26;;;;;;;52.33;36.70;;;;;;;7.08;100.00;100628.50;6193992;23;20018;-79
2023/04/21 01:59:06;;;;;;;52.53;37.00;;;;;;;7.12;100.00;100634.22;6198960;23;20024;-77
2023/04/21 02:01:34;;;;;;;51.75;36.25;;;;;;;7.12;100.00;100634.22;6199358;23;20085;-78
2023/04/21 02:04:02;;;;;;;52.00;36.53;;;;;;;7.20;100.00;100648.22;6198207;23;20060;-78
2023/04/21 02:06:44;;;;;;;51.53;36.28;;;;;;;7.15;100.00;100644.38;6199096;23;20073;-78
2023/04/21 02:09:31;;;;;;;50.33;35.58;;;;;;;7.03;100.00;100629.84;6198930;23;20057;-80
2023/04/21 02:12:17;;;;;;;49.83;36.10;;;;;;;7.06;100.00;100630.41;6196376;23;20528;-79
2023/04/21 02:14:49;;;;;;;51.58;37.03;;;;;;;7.20;100.00;100652.63;6197399;23;20025;-79
2023/04/21 02:17:22;;;;;;;49.63;35.60;;;;;;;7.10;100.00;100636.16;6194377;23;20032;-79
2023/04/21 02:19:53;;;;;;;54.03;37.97;;;;;;;6.96;100.00;100621.75;6192371;23;20025;-80
2023/04/21 02:22:21;;;;;;;52.90;36.63;;;;;;;7.07;100.00;100646.84;6195731;23;20504;-79
2023/04/21 02:24:51;;;;;;;50.75;36.65;;;;;;;6.99;100.00;100645.72;6195158;23;20017;-77
2023/04/21 02:27:19;;;;;;;53.40;36.00;;;;;;;6.80;100.00;100618.81;6195251;23;20112;-80
2023/04/21 02:30:20;;;;;;;53.92;35.58;;;;;;;6.86;100.00;100629.53;6196457;23;20025;-79
2023/04/21 02:32:56;;;;;;;52.33;35.63;;;;;;;6.78;100.00;100642.38;6195860;23;20365;-79
2023/04/21 02:35:23;;;;;;;54.45;37.20;;;;;;;6.56;100.00;100621.75;6196264;23;20025;-79
2023/04/21 02:37:52;;;;;;;57.67;37.70;;;;;;;6.58;100.00;100640.66;6193867;23;20017;-78
2023/04/21 02:40:20;;;;;;;57.35;38.53;;;;;;;6.46;100.00;100647.72;6191497;23;20032;-79
2023/04/21 02:42:48;;;;;;;51.95;36.17;;;;;;;6.18;100.00;100612.78;6190418;23;20028;-79
2023/04/21 02:45:16;;;;;;;52.70;36.40;;;;;;;6.31;100.00;100643.78;6191148;23;20021;-80
2023/04/21 02:47:43;;;;;;;53.92;36.17;;;;;;;6.31;100.00;100643.78;6192701;23;20021;-80
2023/04/21 02:50:13;;;;;;;54.15;37.05;;;;;;;6.23;100.00;100646.19;6192473;23;20488;-78
2023/04/21 02:52:40;;;;;;;55.92;37.45;;;;;;;6.15;100.00;100646.00;6192938;23;20186;-78
2023/04/21 02:55:07;;;;;;;54.83;36.05;;;;;;;6.06;100.00;100624.22;6192500;23;20028;-79
2023/04/21 02:57:34;;;;;;;52.83;36.47;;;;;;;6.10;100.00;100628.22;6193085;23;20028;-79
2023/04/21 03:00:03;;;;;;;54.60;37.97;;;;;;;6.31;100.00;100649.81;6193291;23;20028;-79
2023/04/21 03:02:30;;;;;;;55.58;37.67;;;;;;;6.31;100.00;100657.59;6195489;23;20032;-80
2023/04/21 03:04:57;;;;;;;57.75;37.97;;;;;;;6.20;100.00;100651.63;6195262;23;20032;-79
2023/04/21 03:07:23;;;;;;;57.10;38.25;;;;;;;6.18;100.00;100662.16;6193612;23;20028;-80
2023/04/21 03:09:50;;;;;;;56.20;39.13;;;;;;;6.14;100.00;100659.97;6194165;23;20025;-80
2023/04/21 03:12:16;;;;;;;60.60;39.78;;;;;;;6.09;100.00;100659.53;6191793;23;20025;-79
2023/04/21 03:14:43;;;;;;;57.05;38.25;;;;;;;6.13;100.00;100661.75;6191834;23;20370;-78
2023/04/21 03:17:11;;;;;;;56.78;38.35;;;;;;;6.12;100.00;100665.28;6191524;23;20028;-80
2023/04/21 03:19:38;;;;;;;57.35;38.80;;;;;;;6.02;100.00;100655.78;6192347;23;20025;-79
2023/04/21 03:22:05;;;;;;;57.28;38.30;;;;;;;5.94;100.00;100661.59;6190910;23;20025;-81
2023/04/21 03:24:32;;;;;;;59.72;38.90;;;;;;;5.90;100.00;100665.41;6192471;23;20025;-79
2023/04/21 03:26:59;;;;;;;60.15;38.88;;;;;;;5.84;100.00;100661.50;6192292;23;20017;-79
2023/04/21 03:29:25;;;;;;;59.35;38.78;;;;;;;5.87;100.00;100660.41;6192763;23;20065;-80
2023/04/21 03:31:52;;;;;;;58.03;38.03;;;;;;;5.83;100.00;100661.63;6192213;23;20107;-79
2023/04/21 03:34:20;;;;;;;61.80;39.33;;;;;;;5.81;100.00;100664.34;6192196;23;20048;-80
2023/04/21 03:36:46;;;;;;;63.67;40.22;;;;;;;5.81;100.00;100664.34;6190741;23;20052;-79
2023/04/21 03:39:13;;;;;;;66.45;40.40;;;;;;;5.81;100.00;100666.94;6192170;23;20079;-78
2023/04/21 03:41:40;;;;;;;67.82;40.58;;;;;;;5.90;100.00;100679.19;6193789;23;20469;-78
2023/04/21 03:44:06;;;;;;;65.72;41.60;;;;;;;5.90;100.00;100673.19;6193327;23;20365;-78
2023/04/21 03:46:33;;;;;;;66.75;41.50;;;;;;;5.90;100.00;100678.38;6193581;23;20048;-79
2023/04/21 03:48:59;;;;;;;71.10;41.05;;;;;;;5.95;100.00;100679.66;6193970;23;20036;-80
2023/04/21 03:51:27;;;;;;;70.15;42.05;;;;;;;5.90;100.00;100675.78;6193294;23;20056;-80
2023/04/21 03:53:54;;;;;;;69.35;42.58;;;;;;;5.91;100.00;100672.22;6191737;23;20369;-81
2023/04/21 03:56:21;;;;;;;69.65;42.72;;;;;;;5.94;100.00;100677.19;6192187;23;20029;-80
2023/04/21 03:58:48;;;;;;;65.93;40.13;;;;;;;5.94;100.00;100682.38;6191788;23;20361;-80
2023/04/21 04:01:15;;;;;;;60.80;38.50;;;;;;;5.91;100.00;100683.44;6189379;23;20024;-82
2023/04/21 04:03:41;;;;;;;62.05;38.97;;;;;;;5.77;100.00;100675.91;6188753;23;20338;-81
2023/04/21 04:06:08;;;;;;;61.20;37.80;;;;;;;5.73;100.00;100663.28;6192649;23;20402;-80
2023/04/21 04:08:37;;;;;;;63.50;39.33;;;;;;;5.71;100.00;100678.16;6192222;23;20056;-79
2023/04/21 04:11:04;;;;;;;60.63;38.10;;;;;;;5.67;100.00;100668.03;6193943;23;20071;-79
2023/04/21 04:13:30;;;;;;;65.57;38.70;;;;;;;5.64;100.00;100678.69;6193528;23;20048;-78
2023/04/21 04:15:57;;;;;;;64.38;37.83;;;;;;;5.64;100.00;100681.28;6193773;23;20345;-79
2023/04/21 04:18:24;;;;;;;64.65;38.30;;;;;;;5.58;100.00;100681.78;6194111;23;20092;-79
2023/04/21 04:20:51;;;;;;;61.45;36.92;;;;;;;5.56;100.00;100683.66;6193711;23;20068;-79
2023/04/21 04:23:17;;;;;;;55.85;36.78;;;;;;;5.54;100.00;100674.34;6193753;23;20044;-79
2023/04/21 04:25:46;;;;;;;55.40;35.15;;;;;;;5.53;100.00;100678.72;6194150;23;20025;-79
2023/04/21 04:28:14;;;;;;;54.90;34.70;;;;;;;5.46;100.00;100666.34;6194918;23;20036;-79
2023/04/21 04:30:41;;;;;;;52.60;34.80;;;;;;;5.43;100.00;100680.41;6195125;23;20405;-80
2023/04/21 04:33:08;;;;;;;54.13;32.78;;;;;;;5.44;100.00;100679.44;6192895;23;20025;-81
2023/04/21 04:35:35;;;;;;;52.10;33.08;;;;;;;5.38;100.00;100679.09;6190419;23;20021;-80
2023/04/21 04:38:03;;;;;;;54.25;33.45;;;;;;;5.38;100.00;100672.16;6191057;23;20055;-79
2023/04/21 04:40:29;;;;;;;53.20;33.45;;;;;;;5.44;100.00;100669.06;6191650;23;20085;-80
2023/04/21 04:42:57;;;;;;;53.33;34.08;;;;;;;5.47;100.00;100678.38;6192854;23;20021;-79
2023/04/21 04:45:27;;;;;;;52.65;34.30;;;;;;;5.52;100.00;100674.47;6192209;23;20063;-78
2023/04/21 04:47:54;;;;;;;56.03;34.88;;;;;;;5.61;100.00;100676.34;6192386;23;20061;-79
2023/04/21 04:50:21;;;;;;;55.45;35.10;;;;;;;5.62;100.00;100662.41;6192823;23;20028;-80
2023/04/21 04:52:48;;;;;;;56.33;36.28;;;;;;;5.68;100.00;100668.84;6196019;23;20048;-80
2023/04/21 04:55:15;;;;;;;56.58;34.88;;;;;;;5.72;100.00;100670.25;6193832;23;20021;-79
2023/04/21 04:57:41;;;;;;;61.88;37.15;;;;;;;5.82;100.00;100667.75;6191928;23;20066;-78
2023/04/21 05:00:12;;;;;;;51.92;34.10;;;;;;;5.90;100.00;100670.59;6192383;23;20048;-78
2023/04/21 05:02:39;;;;;;;54.58;35.25;;;;;;;5.95;100.00;100678.84;6190576;23;20369;-79
2023/04/21 05:05:07;;;;;;;58.38;35.00;;;;;;;5.95;100.00;100678.84;6192671;23;20025;-78
2023/04/21 05:07:34;;;;;;;56.53;35.17;;;;;;;6.01;100.00;100673.13;6191013;23;20496;-79
2023/04/21 05:10:03;;;;;;;58.05;36.67;;;;;;;6.08;100.00;100679.47;6191200;23;20049;-79
2023/04/21 05:12:29;;;;;;;57.58;36.55;;;;;;;6.23;100.00;100682.56;6192524;23;20077;-78
2023/04/21 05:14:56;;;;;;;57.53;36.45;;;;;;;6.16;100.00;100681.41;6191818;23;20055;-79
2023/04/21 05:17:24;;;;;;;57.20;35.92;;;;;;;6.27;100.00;100686.56;6192170;23;20058;-78
2023/04/21 05:19:51;;;;;;;52.60;34.03;;;;;;;6.40;100.00;100689.81;6190438;23;20358;-79
2023/04/21 05:22:17;;;;;;;49.63;32.47;;;;;;;6.49;100.00;100673.44;6192591;23;20021;-80
2023/04/21 05:24:44;;;;;;;52.90;34.55;;;;;;;6.45;100.00;100687.66;6193323;23;20087;-79
2023/04/21 05:27:11;;;;;;;52.53;34.25;;;;;;;6.42;100.00;100687.06;6190318;23;20023;-79
2023/04/21 05:29:37;;;;;;;48.95;32.47;;;;;;;6.54;100.00;100671.28;6192756;23;20025;-80
2023/04/21 05:32:04;;;;;;;51.65;32.75;;;;;;;6.66;100.00;100685.00;6190030;23;20056;-78
2023/04/21 05:34:32;;;;;;;52.08;32.78;;;;;;;6.61;100.00;100680.22;6191203;23;20067;-79
2023/04/21 05:36:59;;;;;;;49.72;31.17;;;;;;;6.76;100.00;100688.47;6190355;23;20025;-78
2023/04/21 05:39:27;;;;;;;49.35;31.98;;;;;;;7.07;100.00;100684.09;6189358;23;20021;-79
2023/04/21 05:41:54;;;;;;;48.25;33.05;;;;;;;7.24;100.00;100682.63;6191048;23;20048;-78
2023/04/21 05:44:20;;;;;;;47.70;31.88;;;;;;;7.42;100.00;100675.00;6191464;23;20021;-80
2023/04/21 05:46:47;;;;;;;42.90;31.17;;;;;;;7.35;100.00;100669.50;6189993;23;20055;-81
2023/04/21 05:49:13;;;;;;;47.28;30.30;;;;;;;7.47;100.00;100665.00;6191800;23;20028;-80
2023/04/21 05:51:42;;;;;;;41.47;29.08;;;;;;;7.65;100.00;100664.19;6190865;23;20036;-79
2023/04/21 05:54:08;;;;;;;44.88;30.00;;;;;;;7.83;100.00;100658.31;6192947;23;20025;-79
2023/04/21 05:56:35;;;;;;;38.63;28.98;;;;;;;8.05;100.00;100659.78;6192759;23;20025;-79
2023/04/21 05:59:01;;;;;;;39.13;29.67;;;;;;;8.21;100.00;100655.66;6191363;23;20048;-78
2023/04/21 06:01:28;;;;;;;41.60;28.83;;;;;;;8.36;100.00;100661.28;6193772;23;20036;-79
2023/04/21 06:03:55;;;;;;;36.80;28.70;;;;;;;8.15;100.00;100657.97;6193421;23;20025;-79
2023/04/21 06:06:21;;;;;;;37.85;28.58;;;;;;;7.87;100.00;100651.84;6191594;23;20029;-80
2023/04/21 06:08:49;;;;;;;40.90;30.23;;;;;;;7.57;100.00;100643.19;6191485;23;20485;-81
2023/04/21 06:11:16;;;;;;;43.88;31.23;;;;;;;7.51;100.00;100650.75;6191892;23;20028;-80
2023/04/21 06:13:43;;;;;;;41.03;29.83;;;;;;;7.69;100.00;100649.09;6191835;23;20025;-81
2023/04/21 06:16:13;;;;;;;43.58;31.50;;;;;;;7.80;100.00;100655.97;6193032;23;20021;-81
2023/04/21 06:18:40;;;;;;;43.92;31.05;;;;;;;8.03;100.00;100646.91;6193095;23;20025;-81
2023/04/21 06:21:07;;;;;;;40.35;28.90;;;;;;;8.25;100.00;100645.75;6193321;23;20025;-79
2023/04/21 06:23:33;;;;;;;41.25;30.30;;;;;;;8.28;100.00;100646.31;6193472;23;20036;-80
2023/04/21 06:26:03;;;;;;;38.25;29.20;;;;;;;8.52;100.00;100650.22;6194249;23;20053;-80
2023/04/21 06:28:31;;;;;;;37.80;28.17;;;;;;;9.14;100.00;100660.00;6195033;23;20327;-81
2023/04/21 06:31:01;;;;;;;38.17;27.73;;;;;;;9.84;100.00;100649.75;6195023;23;20031;-81
2023/04/21 06:33:28;;;;;;;33.30;26.52;;;;;;;9.61;100.00;100655.41;6196059;23;20021;-81
2023/04/21 06:35:55;;;;;;;34.65;26.38;;;;;;;8.77;100.00;100656.63;6197161;23;20481;-79
2023/04/21 06:38:22;;;;;;;37.75;27.83;;;;;;;8.59;100.00;100659.97;6196802;23;20025;-80
2023/04/21 06:40:51;;;;;;;37.25;28.33;;;;;;;8.87;100.00;100662.63;6197397;23;20358;-79
2023/04/21 06:43:20;;;;;;;38.55;28.58;;;;;;;8.51;100.00;100651.19;6197264;23;20021;-80
2023/04/21 06:45:46;;;;;;;38.38;29.27;;;;;;;8.63;100.00;100647.47;6195425;23;20391;-80
2023/04/21 06:48:17;;;;;;;41.47;29.88;;;;;;;9.30;100.00;100646.31;6192925;23;20096;-79
2023/04/21 06:50:45;;;;;;;36.90;28.23;;;;;;;10.65;100.00;100652.94;6192848;23;20077;-82
2023/04/21 06:53:11;;;;;;;36.53;27.23;;;;;;;12.38;96.54;100664.38;6193981;23;20445;-78
2023/04/21 06:55:38;;;;;;;32.90;25.17;;;;;;;13.30;90.86;100653.22;6195872;23;20021;-80
2023/04/21 06:58:05;;;;;;;28.23;23.13;;;;;;;13.87;85.57;100642.31;6196823;23;20024;-80
2023/04/21 07:07:33;;;;;;;28.17;23.70;;;;;;;12.61;83.80;100623.31;6087927;23;20424;-83
2023/04/21 07:10:58;;;;;;;31.33;24.02;;;;;;;12.66;83.88;100618.38;6201485;23;20055;-83
2023/04/21 07:13:25;;;;;;;28.65;23.98;;;;;;;13.86;82.81;100630.97;6139608;23;20029;-80
2023/04/21 07:15:53;;;;;;;28.98;23.58;;;;;;;13.96;79.61;100620.22;6168950;23;20098;-81
2023/04/21 07:18:20;;;;;;;27.20;23.88;;;;;;;12.75;79.23;100617.38;6168835;23;20017;-81
2023/04/21 07:20:46;;;;;;;28.80;24.48;;;;;;;12.86;80.11;100626.66;6170325;23;20044;-81
2023/04/21 07:23:13;;;;;;;28.73;23.98;;;;;;;12.39;80.53;100631.91;6169695;23;20044;-81
2023/04/21 07:25:39;;;;;;;28.60;23.90;;;;;;;13.49;81.78;100638.81;6166084;23;20366;-81
2023/04/21 07:28:06;;;;;;;26.20;23.13;;;;;;;14.46;78.93;100624.84;6171110;23;20029;-82
2023/04/21 07:30:33;;;;;;;28.23;23.85;;;;;;;13.36;76.52;100618.38;6171036;23;20037;-81
2023/04/21 07:33:01;;;;;;;29.70;24.67;;;;;;;14.00;78.44;100632.00;6162507;23;20026;-79
2023/04/21 07:35:28;;;;;;;27.08;22.65;;;;;;;14.00;77.69;100626.75;6162648;23;20029;-79
2023/04/21 07:37:55;;;;;;;27.27;23.02;;;;;;;14.16;76.28;100626.63;6160961;23;20032;-78
2023/04/21 07:40:21;;;;;;;27.85;23.58;;;;;;;12.79;78.16;100623.88;6169180;23;20025;-80
2023/04/21 07:42:48;;;;;;;26.27;23.23;;;;;;;13.30;78.22;100613.81;6174569;23;20036;-80
2023/04/21 07:45:14;;;;;;;24.33;21.60;;;;;;;13.78;77.36;100612.63;6171261;23;20030;-80
2023/04/21 07:47:41;;;;;;;25.83;22.35;;;;;;;14.20;76.72;100616.50;6159167;23;20021;-78
2023/04/21 07:50:10;;;;;;;24.38;20.88;;;;;;;12.24;79.02;100627.34;6157818;23;20083;-80
2023/04/21 07:52:36;;;;;;;24.77;21.67;;;;;;;12.37;80.57;100631.25;6157381;23;20018;-79
2023/04/21 07:55:04;;;;;;;24.92;21.08;;;;;;;12.23;81.42;100623.09;6157272;23;20049;-78
2023/04/21 07:57:32;;;;;;;25.75;21.35;;;;;;;12.95;80.78;100626.44;6161066;23;20335;-80
2023/04/21 07:59:59;;;;;;;27.83;22.30;;;;;;;12.69;81.28;100640.84;6164727;23;20025;-78
2023/04/21 08:02:26;;;;;;;28.55;22.60;;;;;;;12.28;81.61;100633.09;6163743;23;20052;-79
2023/04/21 08:04:52;;;;;;;25.92;22.35;;;;;;;11.26;84.08;100636.97;6162010;23;20054;-80
2023/04/21 08:07:20;;;;;;;27.05;22.80;;;;;;;11.29;85.57;100641.06;6161257;23;20026;-78
2023/04/21 08:09:47;;;;;;;30.08;23.92;;;;;;;10.68;87.15;100642.16;6160388;23;20044;-79
2023/04/21 08:12:13;;;;;;;29.00;23.23;;;;;;;10.84;87.98;100636.19;6158837;23;20076;-79
2023/04/21 08:14:40;;;;;;;30.15;23.23;;;;;;;10.88;88.64;100630.44;6157281;23;20029;-78
2023/04/21 08:17:07;;;;;;;29.92;23.17;;;;;;;11.00;88.43;100620.50;6167643;23;20378;-79
2023/04/21 08:19:34;;;;;;;28.63;22.38;;;;;;;11.26;87.30;100625.69;6167028;23;20021;-80
2023/04/21 08:22:00;;;;;;;29.02;22.50;;;;;;;11.82;86.25;100613.59;6166940;23;20017;-80
2023/04/21 08:24:28;;;;;;;28.30;21.90;;;;;;;12.11;85.46;100621.81;6166178;23;20635;-78
2023/04/21 08:26:56;;;;;;;28.08;22.70;;;;;;;12.07;85.26;100620.50;6165198;23;20610;-79
2023/04/21 08:29:23;;;;;;;30.33;22.10;;;;;;;12.54;84.17;100619.72;6160498;23;20049;-77
2023/04/21 08:31:49;;;;;;;26.50;20.83;;;;;;;12.49;83.32;100617.59;6163201;23;20021;-80
2023/04/21 08:34:19;;;;;;;31.92;22.05;;;;;;;12.58;83.89;100618.41;6168925;23;20021;-77
2023/04/21 08:36:49;;;;;;;26.58;21.08;;;;;;;12.33;82.95;100608.94;6169417;23;20024;-78
2023/04/21 08:39:16;;;;;;;29.70;21.75;;;;;;;12.68;82.56;100608.53;6171706;23;20022;-82
2023/04/21 08:41:44;;;;;;;30.17;21.10;;;;;;;12.64;81.42;100617.72;6166602;23;20009;-78
2023/04/21 08:44:11;;;;;;;24.30;20.40;;;;;;;13.47;80.30;100620.59;6170878;23;20057;-80
2023/04/21 08:46:39;;;;;;;26.95;19.88;;;;;;;13.22;80.13;100612.06;6171647;23;20048;-79
2023/04/21 08:49:09;;;;;;;30.33;20.40;;;;;;;12.68;81.09;100618.22;6171830;23;20541;-78
2023/04/21 08:51:37;;;;;;;25.92;21.90;;;;;;;12.41;81.90;100622.06;6167241;23;20021;-80
2023/04/21 08:54:06;;;;;;;27.27;21.52;;;;;;;12.54;82.25;100617.09;6164551;23;20044;-79
2023/04/21 08:56:33;;;;;;;26.70;20.58;;;;;;;12.85;81.31;100604.81;6167417;23;20078;-80
2023/04/21 08:59:01;;;;;;;27.27;21.20;;;;;;;12.17;82.14;100594.91;6167762;23;20021;-77
2023/04/21 09:01:28;;;;;;;27.30;20.92;;;;;;;12.63;82.55;100605.59;6164968;23;20048;-79
2023/04/21 09:04:14;;;;;;;26.08;20.88;;;;;;;13.61;80.75;100596.19;6168084;23;20025;-79
2023/04/21 09:06:42;;;;;;;26.42;20.27;;;;;;;12.60;80.64;100593.63;6167895;23;20028;-79
2023/04/21 09:09:08;;;;;;;28.13;20.73;;;;;;;12.49;82.31;100607.09;6165087;23;20022;-77
2023/04/21 09:11:35;;;;;;;27.23;20.23;;;;;;;12.75;82.01;100612.13;6164108;23;20022;-80
2023/04/21 09:14:03;;;;;;;27.13;20.25;;;;;;;13.21;81.47;100605.19;6165687;23;20025;-79
2023/04/21 09:16:32;;;;;;;25.38;20.45;;;;;;;13.18;79.80;100610.78;6170397;23;20029;-81
2023/04/21 09:19:00;;;;;;;24.65;20.10;;;;;;;13.50;80.20;100593.16;6167564;23;20419;-76
2023/04/21 09:21:28;;;;;;;25.77;20.13;;;;;;;13.34;79.53;100599.31;6168926;23;20021;-79
2023/04/21 09:23:55;;;;;;;26.10;20.17;;;;;;;13.57;79.16;100594.91;6167840;23;20032;-77
2023/04/21 09:26:22;;;;;;;24.85;20.23;;;;;;;13.38;80.21;100615.56;6165326;23;20101;-79
2023/04/21 09:28:50;;;;;;;25.95;20.17;;;;;;;13.95;79.51;100598.34;6164529;23;20024;-78
2023/04/21 09:31:20;;;;;;;25.80;20.80;;;;;;;13.56;79.37;100590.63;6162410;23;20022;-79
2023/04/21 09:33:48;;;;;;;25.55;20.45;;;;;;;13.16;79.89;100598.81;6163446;23;20013;-78
2023/04/21 09:36:19;;;;;;;26.75;21.05;;;;;;;13.61;79.76;100596.19;6162229;23;20021;-79
2023/04/21 09:38:49;;;;;;;24.80;19.75;;;;;;;13.74;79.07;100600.00;6168049;23;20072;-80
2023/04/21 09:41:17;;;;;;;25.60;20.48;;;;;;;14.15;78.39;100598.66;6171710;23;20025;-78
2023/04/21 09:43:46;;;;;;;27.20;20.77;;;;;;;14.25;78.09;100585.22;6173616;23;20170;-78
2023/04/21 09:46:16;;;;;;;26.40;21.17;;;;;;;14.05;78.33;100577.06;6168327;23;20021;-78
2023/04/21 09:48:45;;;;;;;27.60;20.50;;;;;;;14.68;77.73;100583.59;6162081;23;20045;-78
2023/04/21 09:51:13;;;;;;;27.40;21.05;;;;;;;14.15;77.05;100563.63;6163413;23;20129;-80
2023/04/21 09:53:41;;;;;;;27.95;21.75;;;;;;;13.90;78.81;100573.56;6163393;23;20029;-79
2023/04/21 09:56:12;;;;;;;27.52;22.23;;;;;;;14.53;77.13;100567.81;6160381;23;20025;-79
2023/04/21 09:58:44;;;;;;;25.83;21.70;;;;;;;14.35;76.77;100563.88;6157808;23;20462;-78
2023/04/21 10:01:13;;;;;;;26.83;20.87;;;;;;;14.45;77.53;100572.38;6159274;23;20045;-78
2023/04/21 10:03:42;;;;;;;26.52;19.77;;;;;;;13.73;77.65;100567.63;6160533;23;20025;-78
2023/04/21 10:06:10;;;;;;;25.15;20.13;;;;;;;14.09;77.21;100559.09;6156578;23;20049;-77
2023/04/21 10:08:37;;;;;;;27.30;21.35;;;;;;;14.43;76.75;100558.56;6158759;23;20057;-78
2023/04/21 10:11:05;;;;;;;26.40;20.50;;;;;;;14.17;76.79;100548.47;6161909;23;20065;-80
2023/04/21 10:13:39;;;;;;;26.88;20.42;;;;;;;14.47;76.56;100555.41;6163036;23;20028;-79
2023/04/21 10:16:07;;;;;;;24.08;19.58;;;;;;;14.10;76.24;100540.50;6158326;23;20092;-80
2023/04/21 10:18:37;;;;;;;23.48;19.17;;;;;;;14.51;76.12;100553.22;6158975;23;20050;-78
2023/04/21 10:21:06;;;;;;;23.77;18.40;;;;;;;14.29;75.65;100547.00;6160306;23;20292;-79
2023/04/21 10:23:37;;;;;;;22.98;18.10;;;;;;;14.64;75.09;100542.84;6158578;23;20025;-79
2023/04/21 10:26:06;;;;;;;24.20;18.52;;;;;;;14.66;75.66;100540.81;6160807;23;20049;-79
2023/04/21 10:28:44;;;;;;;21.63;18.45;;;;;;;14.31;74.42;100531.03;6159470;23;20021;-78
2023/04/21 10:31:18;;;;;;;22.05;17.10;;;;;;;14.74;74.51;100518.81;6162812;23;20072;-77
2023/04/21 10:34:12;;;;;;;23.50;17.75;;;;;;;14.53;74.71;100527.50;6164207;23;20021;-81
2023/04/21 10:36:50;;;;;;;24.70;18.48;;;;;;;14.05;76.19;100524.44;6160614;23;20076;-79
2023/04/21 10:39:30;;;;;;;24.98;19.92;;;;;;;14.24;77.02;100530.94;6159426;23;20219;-78
2023/04/21 10:41:58;;;;;;;25.63;19.08;;;;;;;14.49;75.62;100515.72;6159721;23;20057;-79
2023/04/21 10:44:24;;;;;;;19.83;15.32;;;;;;;14.22;74.10;100499.53;6161562;23;20507;-79
2023/04/21 10:46:52;;;;;;;21.50;16.02;;;;;;;14.42;73.56;100497.19;6158752;23;20067;-80
2023/04/21 10:49:22;;;;;;;19.42;15.00;;;;;;;14.89;73.86;100498.53;6161852;23;20053;-79
2023/04/21 10:52:07;;;;;;;21.92;15.88;;;;;;;14.96;73.00;100480.16;6160343;23;20459;-79
2023/04/21 10:54:42;;;;;;;21.13;15.77;;;;;;;14.94;72.99;100477.72;6159115;23;20038;-79
2023/04/21 10:57:11;;;;;;;22.00;15.45;;;;;;;14.21;72.84;100482.13;6159203;23;20022;-80
2023/04/21 10:59:37;;;;;;;21.10;15.50;;;;;;;14.98;72.62;100472.88;6161833;23;20028;-80
2023/04/21 11:02:05;;;;;;;20.20;15.43;;;;;;;14.69;71.66;100474.59;6160705;23;20026;-80
2023/04/21 11:04:32;;;;;;;17.83;13.70;;;;;;;15.00;71.22;100453.25;6159588;23;20028;-76
2023/04/21 11:07:06;;;;;;;18.13;14.15;;;;;;;14.87;70.98;100459.19;6158545;23;20053;-78
2023/04/21 11:09:33;;;;;;;20.73;13.52;;;;;;;15.26;71.54;100460.56;6158335;23;20074;-77
2023/04/21 11:12:03;;;;;;;16.92;13.68;;;;;;;15.64;70.63;100452.34;6159346;23;20534;-77
2023/04/21 11:14:30;;;;;;;18.52;13.73;;;;;;;15.71;70.47;100446.09;6158759;23;20021;-78
2023/04/21 11:16:57;;;;;;;13.32;11.07;;;;;;;15.49;68.12;100426.88;6157661;23;20134;-78
2023/04/21 11:19:24;;;;;;;14.90;12.45;;;;;;;15.36;67.84;100428.59;6158007;23;20069;-77
2023/04/21 11:21:53;;;;;;;17.23;13.07;;;;;;;15.92;68.23;100434.66;6157847;23;20528;-78
2023/04/21 11:24:20;;;;;;;19.65;14.68;;;;;;;15.81;67.80;100425.47;6157932;23;20060;-78
2023/04/21 11:26:47;;;;;;;17.90;12.80;;;;;;;15.83;66.60;100420.81;6157716;23;20035;-78